Time;durP1;ratioP1;P1;durP2;ratioP2;P2;SDS_P1;SDS_P2;PMS_P1;PMS_P2;Temp;Humidity;BMP_temperature;BMP_pressure;BME280_temperature;BME280_humidity;BME280_pressure;Samples;Min_cycle;Max_cycle;Signal;HPM_P1;HPM_P2
2022/01/15 00:01:46;;;;;;;190.80;32.90;;;-0.70;99.90;;;;;;5087520;28;20207;-70
2022/01/15 00:04:13;;;;;;;98.22;30.98;;;-0.70;99.90;;;;;;5086305;28;20239;-71
2022/01/15 00:06:39;;;;;;;89.28;31.10;;;-0.60;99.90;;;;;;5086284;28;20231;-71
2022/01/15 00:09:06;;;;;;;120.28;32.35;;;-0.70;99.90;;;;;;5085349;28;20239;-71
2022/01/15 00:11:34;;;;;;;124.88;33.38;;;-0.70;99.90;;;;;;5085913;28;20215;-71
2022/01/15 00:14:15;;;;;;;175.68;34.35;;;-0.80;99.90;;;;;;5086706;28;20246;-71
2022/01/15 00:17:06;;;;;;;120.45;33.03;;;-0.80;99.90;;;;;;5082597;28;20299;-72
2022/01/15 00:19:41;;;;;;;109.25;30.80;;;-0.80;99.90;;;;;;5082831;28;20282;-71
2022/01/15 00:22:16;;;;;;;138.52;31.38;;;-0.90;99.90;;;;;;5084696;28;20187;-71
2022/01/15 00:24:43;;;;;;;141.75;31.85;;;-0.90;99.90;;;;;;5085065;28;20188;-71
2022/01/15 00:27:10;;;;;;;155.10;31.90;;;-1.00;99.90;;;;;;5083397;28;20251;-71
2022/01/15 00:29:37;;;;;;;154.10;28.55;;;-0.90;99.90;;;;;;5079638;28;20724;-72
2022/01/15 00:32:06;;;;;;;92.90;26.25;;;-1.00;99.90;;;;;;5083175;28;20739;-70
2022/01/15 00:34:32;;;;;;;186.15;34.00;;;-1.00;99.90;;;;;;5081682;28;20283;-70
2022/01/15 00:36:59;;;;;;;98.32;28.80;;;-1.00;99.90;;;;;;5079833;28;20227;-70
2022/01/15 00:39:26;;;;;;;94.60;26.67;;;-1.00;99.90;;;;;;5083351;28;20203;-70
2022/01/15 00:41:53;;;;;;;186.20;30.33;;;-1.00;99.90;;;;;;5082146;28;20286;-70
2022/01/15 00:44:20;;;;;;;124.82;28.88;;;-0.90;99.90;;;;;;5076640;28;20204;-70
2022/01/15 00:46:46;;;;;;;91.90;28.05;;;-1.00;99.90;;;;;;5077015;28;20199;-70
2022/01/15 00:49:13;;;;;;;80.78;28.42;;;-1.00;99.90;;;;;;5082851;28;20282;-70
2022/01/15 00:51:39;;;;;;;117.20;27.70;;;-0.90;99.90;;;;;;5088853;28;20203;-70
2022/01/15 00:54:06;;;;;;;104.78;30.27;;;-0.90;99.90;;;;;;5086543;28;20344;-70
2022/01/15 00:56:33;;;;;;;164.40;32.50;;;-1.00;99.90;;;;;;5087670;28;20215;-70
2022/01/15 00:58:59;;;;;;;85.28;23.95;;;-1.00;99.90;;;;;;5083616;28;20200;-70
2022/01/15 01:01:26;;;;;;;102.13;26.90;;;-1.00;99.90;;;;;;5084535;28;20286;-70
2022/01/15 01:03:52;;;;;;;78.13;26.38;;;-1.00;99.90;;;;;;5088141;28;20338;-70
2022/01/15 01:06:19;;;;;;;106.10;27.20;;;-1.00;99.90;;;;;;5086936;28;20678;-71
2022/01/15 01:08:45;;;;;;;81.63;25.10;;;-1.00;99.90;;;;;;5079147;28;20195;-70
2022/01/15 01:11:15;;;;;;;81.85;27.38;;;-1.00;99.90;;;;;;5080317;28;20207;-70
2022/01/15 01:24:25;;;;;;;105.97;26.63;;;-1.10;99.90;;;;;;5079996;28;20274;-70
2022/01/15 01:32:02;;;;;;;91.05;24.05;;;-1.10;99.90;;;;;;5080741;28;20203;-72
2022/01/15 01:34:31;;;;;;;93.65;23.45;;;-1.10;99.90;;;;;;5082107;28;20192;-70
2022/01/15 01:37:18;;;;;;;128.50;26.35;;;-1.10;99.90;;;;;;5080935;28;20204;-70
2022/01/15 01:39:49;;;;;;;120.35;27.33;;;-1.20;99.90;;;;;;5078513;28;20206;-69
2022/01/15 01:45:08;;;;;;;98.28;26.80;;;-1.10;99.90;;;;;;5078562;28;20199;-69
2022/01/15 01:47:40;;;;;;;73.00;27.58;;;-1.10;99.90;;;;;;5078568;28;20200;-70
2022/01/15 01:50:20;;;;;;;74.90;26.40;;;-1.00;99.90;;;;;;5078769;28;20207;-69
2022/01/15 01:52:50;;;;;;;105.47;30.75;;;-1.00;99.90;;;;;;5078274;28;20774;-69
2022/01/15 01:55:18;;;;;;;113.28;30.35;;;-1.00;99.90;;;;;;5078483;28;20192;-69
2022/01/15 01:57:46;;;;;;;105.75;32.13;;;-1.10;99.90;;;;;;5078256;28;20269;-69
2022/01/15 02:00:19;;;;;;;138.63;34.28;;;-1.00;99.90;;;;;;5080195;28;20210;-69
2022/01/15 02:02:46;;;;;;;159.80;34.85;;;-1.00;99.90;;;;;;5080082;28;20207;-70
2022/01/15 02:05:13;;;;;;;117.18;35.80;;;-1.00;99.90;;;;;;5078588;28;20677;-70
2022/01/15 02:07:43;;;;;;;161.10;36.50;;;-1.00;99.90;;;;;;5081990;28;20624;-70
2022/01/15 02:10:13;;;;;;;109.97;33.47;;;-1.10;99.90;;;;;;5081074;28;20196;-70
2022/01/15 02:12:40;;;;;;;122.05;34.78;;;-1.00;99.90;;;;;;5080111;28;20207;-70
2022/01/15 02:15:13;;;;;;;95.15;32.42;;;-0.90;99.90;;;;;;5080409;28;20203;-70
2022/01/15 02:17:40;;;;;;;135.27;36.35;;;-0.90;99.90;;;;;;5078642;28;20245;-70
2022/01/15 02:25:43;;;;;;;112.25;34.88;;;-1.00;99.90;;;;;;5081989;28;20290;-70
2022/01/15 02:28:11;;;;;;;110.43;32.28;;;-1.00;99.90;;;;;;5080114;28;20199;-70
2022/01/15 02:30:38;;;;;;;100.07;33.08;;;-0.90;99.90;;;;;;5079322;28;20200;-70
2022/01/15 02:33:06;;;;;;;121.70;32.17;;;-0.90;99.90;;;;;;5079346;28;20213;-70
2022/01/15 02:35:33;;;;;;;120.30;30.55;;;-0.80;99.90;;;;;;5079209;28;20565;-70
2022/01/15 02:38:04;;;;;;;108.55;32.13;;;-0.90;99.90;;;;;;5078434;28;20261;-70
2022/01/15 02:40:35;;;;;;;79.10;28.30;;;-0.90;99.90;;;;;;5077724;28;20229;-72
2022/01/15 02:43:07;;;;;;;118.82;35.15;;;-0.80;99.90;;;;;;5079128;28;20283;-71
2022/01/15 02:45:34;;;;;;;130.15;32.55;;;-0.80;99.90;;;;;;5078479;28;20208;-71
2022/01/15 02:48:22;;;;;;;101.78;31.15;;;-0.80;99.90;;;;;;5078015;28;20196;-71
2022/01/15 02:50:48;;;;;;;108.00;32.15;;;-0.90;99.90;;;;;;5077516;28;20265;-71
2022/01/15 02:53:16;;;;;;;124.43;31.52;;;-0.80;99.90;;;;;;5078009;28;20232;-71
2022/01/15 02:55:44;;;;;;;109.43;30.88;;;-0.80;99.90;;;;;;5078112;28;20207;-71
2022/01/15 02:58:10;;;;;;;127.97;34.22;;;-0.80;99.90;;;;;;5076188;28;20200;-72
2022/01/15 03:00:38;;;;;;;102.82;32.38;;;-0.70;99.90;;;;;;5078089;28;20210;-71
2022/01/15 03:03:05;;;;;;;106.55;29.90;;;-0.60;99.90;;;;;;5077971;28;20674;-72
2022/01/15 03:05:32;;;;;;;113.50;31.40;;;-0.60;99.90;;;;;;5078067;28;20216;-71
2022/01/15 03:07:58;;;;;;;121.88;34.08;;;-0.70;99.90;;;;;;5078870;28;20203;-71
2022/01/15 03:10:25;;;;;;;130.43;34.55;;;-0.70;99.90;;;;;;5077962;28;20203;-69
2022/01/15 03:12:54;;;;;;;122.00;33.15;;;-0.70;99.90;;;;;;5077911;28;20199;-70
2022/01/15 03:15:21;;;;;;;100.80;30.75;;;-0.60;99.90;;;;;;5078105;28;20318;-70
2022/01/15 03:17:48;;;;;;;132.48;31.80;;;-0.60;99.90;;;;;;5077792;28;20641;-70
2022/01/15 03:20:17;;;;;;;95.38;31.88;;;-0.60;99.90;;;;;;5078401;28;20207;-70
2022/01/15 03:22:44;;;;;;;111.15;31.02;;;-0.60;99.90;;;;;;5077968;28;20630;-70
2022/01/15 03:25:12;;;;;;;122.28;30.65;;;-0.50;99.90;;;;;;5078872;28;20211;-70
2022/01/15 03:27:38;;;;;;;129.10;32.83;;;-0.60;99.90;;;;;;5079347;28;20224;-70
2022/01/15 03:30:07;;;;;;;96.97;31.77;;;-0.60;99.90;;;;;;5078032;28;20203;-71
2022/01/15 03:32:34;;;;;;;91.93;29.80;;;-0.50;99.90;;;;;;5078431;28;20200;-71
2022/01/15 03:35:01;;;;;;;111.57;30.70;;;-0.50;99.90;;;;;;5077575;28;20200;-70
2022/01/15 03:37:27;;;;;;;107.82;31.88;;;-0.40;99.90;;;;;;5077545;28;20211;-70
2022/01/15 03:39:54;;;;;;;89.70;29.35;;;-0.50;99.90;;;;;;5077658;28;20238;-70
2022/01/15 03:42:20;;;;;;;95.93;28.10;;;-0.40;99.90;;;;;;5078172;28;20204;-70
2022/01/15 03:44:49;;;;;;;96.97;28.33;;;-0.40;99.90;;;;;;5077599;28;20208;-71
2022/01/15 03:47:16;;;;;;;102.72;29.17;;;-0.40;99.90;;;;;;5077407;28;20568;-70
2022/01/15 03:49:44;;;;;;;91.97;29.25;;;-0.50;99.90;;;;;;5077476;28;20227;-70
2022/01/15 03:52:11;;;;;;;78.90;31.70;;;-0.50;99.90;;;;;;5077158;28;20232;-70
2022/01/15 03:54:37;;;;;;;103.47;32.38;;;-0.50;99.90;;;;;;5075890;28;20200;-70
2022/01/15 03:57:04;;;;;;;117.80;31.10;;;-0.40;99.90;;;;;;5077196;28;20568;-71
2022/01/15 03:59:31;;;;;;;77.15;27.85;;;-0.50;99.90;;;;;;5077073;28;20200;-70
2022/01/15 04:01:59;;;;;;;93.45;27.98;;;-0.50;99.90;;;;;;5076897;28;20223;-70
2022/01/15 04:04:25;;;;;;;86.65;29.50;;;-0.50;99.90;;;;;;5078303;28;20206;-70
2022/01/15 04:06:52;;;;;;;103.97;27.85;;;-0.50;99.90;;;;;;5076377;28;20232;-70
2022/01/15 04:09:18;;;;;;;114.70;30.85;;;-0.50;99.90;;;;;;5077490;28;20276;-70
2022/01/15 04:11:45;;;;;;;85.00;28.35;;;-0.50;99.90;;;;;;5076342;28;20200;-71
2022/01/15 04:14:12;;;;;;;86.32;29.30;;;-0.40;99.90;;;;;;5076312;28;20241;-71
2022/01/15 04:16:39;;;;;;;81.60;28.90;;;-0.40;99.90;;;;;;5075881;28;20263;-71
2022/01/15 04:19:08;;;;;;;83.97;28.88;;;-0.40;99.90;;;;;;5076360;28;20208;-72
2022/01/15 04:21:36;;;;;;;89.60;28.48;;;-0.30;99.90;;;;;;5075488;28;20200;-70
2022/01/15 04:24:03;;;;;;;87.65;27.40;;;-0.30;99.90;;;;;;5076084;28;20200;-70
2022/01/15 04:26:30;;;;;;;91.47;30.50;;;-0.30;99.90;;;;;;5075947;28;20223;-70
2022/01/15 04:29:05;;;;;;;92.10;28.55;;;-0.30;99.90;;;;;;5076031;28;20265;-70
2022/01/15 04:31:49;;;;;;;84.57;30.88;;;-0.30;99.90;;;;;;5074422;28;20257;-70
2022/01/15 04:34:19;;;;;;;95.82;30.08;;;-0.30;99.90;;;;;;5075185;28;20185;-70
2022/01/15 04:36:47;;;;;;;121.65;32.08;;;-0.30;99.90;;;;;;5074728;28;20695;-70
2022/01/15 04:39:14;;;;;;;100.15;28.67;;;-0.20;99.90;;;;;;5074589;28;20255;-70
2022/01/15 04:41:40;;;;;;;94.43;26.83;;;-0.20;99.90;;;;;;5075474;28;20261;-70
2022/01/15 04:44:07;;;;;;;96.05;29.88;;;-0.30;99.90;;;;;;5073984;28;20211;-70
2022/01/15 04:46:35;;;;;;;95.40;30.00;;;-0.30;99.90;;;;;;5073866;28;20223;-70
2022/01/15 04:49:03;;;;;;;124.75;32.38;;;-0.20;99.90;;;;;;5075062;28;20578;-70
2022/01/15 04:51:30;;;;;;;137.95;31.05;;;-0.10;99.90;;;;;;5073886;28;20616;-70
2022/01/15 04:53:56;;;;;;;106.03;32.05;;;-0.20;99.90;;;;;;5073469;28;20200;-70
2022/01/15 04:56:24;;;;;;;124.18;29.67;;;-0.20;99.90;;;;;;5074065;28;20268;-70
2022/01/15 04:58:50;;;;;;;166.23;31.67;;;-0.20;99.90;;;;;;5073561;28;20287;-70
2022/01/15 05:01:17;;;;;;;108.65;29.98;;;-0.20;99.90;;;;;;5072230;28;20610;-70
2022/01/15 05:03:43;;;;;;;116.28;28.42;;;-0.30;99.90;;;;;;5073589;28;20203;-70
2022/01/15 05:06:10;;;;;;;125.47;29.38;;;-0.20;99.90;;;;;;5072513;28;20269;-70
2022/01/15 05:08:36;;;;;;;100.18;28.27;;;-0.10;99.90;;;;;;5073971;28;20222;-70
2022/01/15 05:11:12;;;;;;;125.85;31.02;;;-0.10;99.90;;;;;;5073874;28;20222;-70
2022/01/15 05:13:39;;;;;;;143.48;27.90;;;-0.10;99.90;;;;;;5073730;28;20204;-70
2022/01/15 05:16:06;;;;;;;87.63;28.13;;;-0.20;99.90;;;;;;5073413;28;20544;-70
2022/01/15 05:18:33;;;;;;;142.43;28.98;;;-0.20;99.90;;;;;;5073597;28;20659;-70
2022/01/15 05:20:59;;;;;;;149.43;30.83;;;-0.20;99.90;;;;;;5072299;28;20246;-71
2022/01/15 05:23:26;;;;;;;143.50;29.92;;;-0.20;99.90;;;;;;5072147;28;20207;-70
2022/01/15 05:25:52;;;;;;;132.73;29.05;;;-0.10;99.90;;;;;;5073745;28;20261;-70
2022/01/15 05:28:19;;;;;;;143.20;30.02;;;-0.20;99.90;;;;;;5073581;28;20204;-70
2022/01/15 05:30:45;;;;;;;116.35;27.05;;;-0.20;99.90;;;;;;5073721;28;20200;-70
2022/01/15 05:33:11;;;;;;;115.10;26.75;;;-0.20;99.90;;;;;;5075992;28;20264;-70
2022/01/15 05:35:38;;;;;;;103.47;26.63;;;-0.20;99.90;;;;;;5077373;28;20196;-70
2022/01/15 05:38:04;;;;;;;89.05;25.58;;;-0.10;99.90;;;;;;5077318;28;20208;-70
2022/01/15 05:40:30;;;;;;;96.90;25.40;;;-0.10;99.90;;;;;;5077301;28;20203;-70
2022/01/15 05:42:57;;;;;;;105.50;25.67;;;-0.10;99.90;;;;;;5077016;28;20250;-70
2022/01/15 05:45:24;;;;;;;111.28;27.38;;;-0.10;99.90;;;;;;5077231;28;20264;-70
2022/01/15 05:47:52;;;;;;;115.63;26.92;;;-0.10;99.90;;;;;;5076882;28;20220;-70
2022/01/15 05:50:18;;;;;;;118.68;27.75;;;-0.10;99.90;;;;;;5077084;28;20204;-70
2022/01/15 05:52:45;;;;;;;106.00;24.75;;;0.00;99.90;;;;;;5075721;28;20227;-70
2022/01/15 05:55:11;;;;;;;115.50;28.38;;;0.00;99.90;;;;;;5077281;28;20200;-70
2022/01/15 05:57:38;;;;;;;124.53;27.40;;;0.00;99.90;;;;;;5076964;28;20254;-70
2022/01/15 06:00:07;;;;;;;97.93;26.67;;;0.00;99.90;;;;;;5076788;28;20200;-70
2022/01/15 06:02:34;;;;;;;99.00;30.63;;;0.00;99.90;;;;;;5076440;28;20214;-70
2022/01/15 06:05:00;;;;;;;114.03;27.85;;;0.10;99.90;;;;;;5076191;28;20261;-70
2022/01/15 06:07:27;;;;;;;122.35;26.42;;;0.10;99.90;;;;;;5076300;28;20220;-70
2022/01/15 06:09:53;;;;;;;126.28;24.75;;;0.10;99.90;;;;;;5076462;28;20245;-71
2022/01/15 06:12:27;;;;;;;115.03;24.58;;;0.10;99.90;;;;;;5076477;28;20206;-70
2022/01/15 06:14:54;;;;;;;104.05;27.10;;;0.10;99.90;;;;;;5076824;28;20207;-70
2022/01/15 06:17:20;;;;;;;96.03;26.45;;;0.10;99.90;;;;;;5076704;28;20548;-70
2022/01/15 06:19:46;;;;;;;103.32;28.40;;;0.10;99.90;;;;;;5076796;28;20576;-71
2022/01/15 06:22:13;;;;;;;111.80;24.45;;;0.00;99.90;;;;;;5076670;28;20199;-71
2022/01/15 06:24:39;;;;;;;148.43;27.92;;;0.10;99.90;;;;;;5076501;28;20211;-71
2022/01/15 06:27:08;;;;;;;133.55;26.05;;;0.20;99.90;;;;;;5076350;28;20220;-71
2022/01/15 06:29:34;;;;;;;141.90;28.98;;;0.10;99.90;;;;;;5076492;28;20196;-70
2022/01/15 06:32:01;;;;;;;93.80;28.98;;;0.10;99.90;;;;;;5075668;28;20698;-70
2022/01/15 06:34:27;;;;;;;109.93;28.42;;;0.10;99.90;;;;;;5077280;28;20200;-70
2022/01/15 06:36:54;;;;;;;75.50;21.92;;;0.10;99.90;;;;;;5076906;28;20203;-70
2022/01/15 06:39:20;;;;;;;85.70;25.88;;;0.10;99.90;;;;;;5074920;28;20721;-70
2022/01/15 06:41:47;;;;;;;75.97;26.02;;;0.10;99.90;;;;;;5076714;28;20277;-70
2022/01/15 06:44:13;;;;;;;83.72;25.55;;;0.10;99.90;;;;;;5074252;28;20204;-70
2022/01/15 06:46:39;;;;;;;83.75;26.25;;;0.10;99.90;;;;;;5075720;28;20683;-70
2022/01/15 06:49:06;;;;;;;90.15;27.15;;;0.20;99.90;;;;;;5076338;28;20207;-70
2022/01/15 06:51:32;;;;;;;90.35;27.25;;;0.20;99.90;;;;;;5075895;28;20196;-70
2022/01/15 06:53:58;;;;;;;92.05;30.15;;;0.30;99.90;;;;;;5075614;28;20659;-70
2022/01/15 06:56:25;;;;;;;78.20;25.50;;;0.20;99.90;;;;;;5076330;28;20207;-70
2022/01/15 06:58:51;;;;;;;81.35;27.08;;;0.20;99.90;;;;;;5076224;28;20250;-70
2022/01/15 07:01:18;;;;;;;148.50;30.98;;;0.10;99.90;;;;;;5075442;28;20215;-70
2022/01/15 07:03:44;;;;;;;93.90;26.15;;;0.10;99.90;;;;;;5075879;28;20203;-70
2022/01/15 07:06:11;;;;;;;88.93;24.67;;;0.10;99.90;;;;;;5074517;28;20224;-70
2022/01/15 07:08:37;;;;;;;104.10;26.85;;;0.10;99.90;;;;;;5075563;28;20230;-70
2022/01/15 07:11:03;;;;;;;81.07;25.38;;;0.20;99.90;;;;;;5075555;28;20737;-70
2022/01/15 07:13:30;;;;;;;85.65;25.35;;;0.00;99.90;;;;;;5076185;28;20204;-70
2022/01/15 07:15:56;;;;;;;83.93;25.77;;;0.00;99.90;;;;;;5075517;28;20609;-70
2022/01/15 07:18:23;;;;;;;77.28;25.38;;;0.00;99.90;;;;;;5075723;28;20207;-70
2022/01/15 07:20:51;;;;;;;68.82;26.10;;;0.10;99.90;;;;;;5075711;28;20200;-70
2022/01/15 07:23:18;;;;;;;69.72;26.38;;;0.00;99.90;;;;;;5075586;28;20200;-70
2022/01/15 07:25:44;;;;;;;67.65;24.15;;;0.00;99.90;;;;;;5075902;28;20211;-71
2022/01/15 07:28:11;;;;;;;79.35;25.25;;;0.00;99.90;;;;;;5075837;28;20223;-71
2022/01/15 07:30:38;;;;;;;80.75;26.08;;;-0.10;99.90;;;;;;5075364;28;20250;-70
2022/01/15 07:33:04;;;;;;;69.00;23.60;;;-0.10;99.90;;;;;;5075950;28;20206;-70
2022/01/15 07:35:31;;;;;;;50.45;22.33;;;-0.10;99.90;;;;;;5075731;28;20191;-70
2022/01/15 07:37:57;;;;;;;55.92;26.00;;;-0.20;99.90;;;;;;5076031;28;20222;-70
2022/01/15 07:40:24;;;;;;;61.08;23.38;;;-0.30;99.90;;;;;;5074688;28;20270;-70
2022/01/15 07:42:50;;;;;;;50.60;23.73;;;-0.30;99.90;;;;;;5073408;28;20203;-70
2022/01/15 07:45:17;;;;;;;57.83;25.95;;;-0.30;99.90;;;;;;5075238;28;20283;-70
2022/01/15 07:47:44;;;;;;;63.90;25.70;;;-0.30;99.90;;;;;;5077482;28;20227;-70
2022/01/15 07:50:26;;;;;;;53.17;23.88;;;-0.40;99.90;;;;;;5077409;28;20577;-71
2022/01/15 07:52:54;;;;;;;55.28;22.60;;;-0.40;99.90;;;;;;5076418;28;20228;-70
2022/01/15 07:55:22;;;;;;;55.13;21.60;;;-0.40;99.90;;;;;;5076674;28;20716;-70
2022/01/15 07:57:49;;;;;;;68.22;23.83;;;-0.40;99.90;;;;;;5076954;28;20257;-70
2022/01/15 08:00:16;;;;;;;75.28;24.50;;;-0.30;99.90;;;;;;5076402;28;20579;-70
2022/01/15 08:02:43;;;;;;;71.78;27.73;;;-0.30;99.90;;;;;;5076631;28;20204;-70
2022/01/15 08:05:11;;;;;;;74.25;24.65;;;-0.20;99.90;;;;;;5076900;28;20283;-70
2022/01/15 08:07:40;;;;;;;58.25;20.85;;;-0.20;99.90;;;;;;5076606;28;20231;-70
2022/01/15 08:10:07;;;;;;;58.22;21.63;;;-0.10;99.90;;;;;;5076108;28;20196;-70
2022/01/15 08:12:41;;;;;;;63.83;24.08;;;-0.10;99.90;;;;;;5076449;28;20556;-70
2022/01/15 08:15:08;;;;;;;62.55;23.13;;;-0.10;99.90;;;;;;5076154;28;20525;-69
2022/01/15 08:17:34;;;;;;;63.30;22.45;;;-0.10;99.90;;;;;;5076230;28;20257;-71
2022/01/15 08:20:00;;;;;;;52.35;20.45;;;-0.20;99.90;;;;;;5076246;28;20314;-70
2022/01/15 08:22:27;;;;;;;54.25;21.08;;;-0.10;99.90;;;;;;5075152;28;20204;-70
2022/01/15 08:24:53;;;;;;;55.40;22.08;;;0.00;99.90;;;;;;5075402;28;20207;-70
2022/01/15 08:27:20;;;;;;;52.72;20.83;;;0.00;99.90;;;;;;5076131;28;20224;-70
2022/01/15 08:29:46;;;;;;;54.20;20.20;;;0.10;99.90;;;;;;5076864;28;20210;-70
2022/01/15 08:32:12;;;;;;;68.75;23.48;;;0.00;99.90;;;;;;5076284;28;20352;-70
2022/01/15 08:34:39;;;;;;;54.20;19.60;;;0.00;99.90;;;;;;5075964;28;20203;-70
2022/01/15 08:37:06;;;;;;;52.78;20.15;;;0.00;99.90;;;;;;5075945;28;20211;-70
2022/01/15 08:39:32;;;;;;;54.67;20.38;;;-0.10;99.90;;;;;;5078558;28;20207;-70
2022/01/15 08:41:59;;;;;;;57.53;21.23;;;0.00;99.90;;;;;;5077463;28;20606;-71
2022/01/15 08:44:25;;;;;;;58.95;21.70;;;0.10;99.90;;;;;;5076379;28;20278;-71
2022/01/15 08:46:52;;;;;;;53.97;19.83;;;0.20;99.90;;;;;;5077101;28;20223;-71
2022/01/15 08:49:19;;;;;;;59.90;20.60;;;0.30;99.90;;;;;;5076289;28;20655;-70
2022/01/15 08:51:46;;;;;;;54.65;18.83;;;0.30;99.90;;;;;;5076331;28;20211;-70
2022/01/15 08:54:13;;;;;;;51.03;20.75;;;0.30;99.90;;;;;;5077831;28;20176;-70
2022/01/15 08:56:39;;;;;;;50.28;20.95;;;0.30;99.90;;;;;;5078047;28;20191;-70
2022/01/15 08:59:06;;;;;;;59.53;19.67;;;0.40;99.90;;;;;;5076229;28;20188;-69
2022/01/15 09:01:32;;;;;;;54.83;21.17;;;0.40;99.90;;;;;;5077953;28;20274;-71
2022/01/15 09:03:59;;;;;;;54.78;20.83;;;0.50;99.90;;;;;;5075857;28;20196;-71
2022/01/15 09:06:27;;;;;;;54.80;23.10;;;0.50;99.90;;;;;;5077120;28;20219;-69
2022/01/15 09:08:54;;;;;;;49.33;20.27;;;0.50;99.90;;;;;;5080206;28;20231;-70
2022/01/15 09:11:20;;;;;;;50.85;19.90;;;0.60;99.90;;;;;;5081450;28;20207;-72
2022/01/15 09:13:48;;;;;;;44.50;19.23;;;0.60;99.90;;;;;;5081710;28;20259;-70
2022/01/15 09:16:15;;;;;;;40.17;19.05;;;0.70;99.90;;;;;;5080386;28;20655;-69
2022/01/15 09:18:41;;;;;;;44.35;20.50;;;0.70;99.90;;;;;;5081973;28;20207;-70
2022/01/15 09:21:09;;;;;;;52.72;22.90;;;0.70;99.90;;;;;;5082758;28;20556;-71
2022/01/15 09:23:35;;;;;;;40.67;19.67;;;0.80;99.90;;;;;;5082960;28;20192;-70
2022/01/15 09:26:01;;;;;;;54.65;23.27;;;0.80;99.90;;;;;;5081693;28;20786;-70
2022/01/15 09:31:12;;;;;;;42.53;19.42;;;0.90;99.90;;;;;;5081955;28;20180;-70
2022/01/15 09:33:39;;;;;;;32.28;17.75;;;0.90;99.90;;;;;;5079937;28;20195;-70
2022/01/15 09:36:05;;;;;;;37.75;18.95;;;1.00;99.90;;;;;;5079894;28;20211;-70
2022/01/15 09:38:32;;;;;;;36.75;18.40;;;0.80;99.90;;;;;;5081570;28;20204;-69
2022/01/15 09:40:58;;;;;;;40.85;18.08;;;0.80;99.90;;;;;;5080677;28;20206;-69
2022/01/15 09:43:26;;;;;;;42.95;21.90;;;0.90;99.90;;;;;;5082513;28;20199;-72
2022/01/15 09:45:52;;;;;;;42.70;19.70;;;0.90;99.90;;;;;;5081893;28;20192;-72
2022/01/15 09:48:20;;;;;;;38.92;19.00;;;0.90;99.90;;;;;;5081263;28;20219;-72
2022/01/15 09:50:47;;;;;;;37.78;19.73;;;0.90;99.90;;;;;;5081409;28;20204;-72
2022/01/15 09:53:16;;;;;;;43.72;18.85;;;1.00;99.90;;;;;;5080315;28;20262;-71
2022/01/15 09:55:46;;;;;;;38.28;20.23;;;1.00;99.90;;;;;;5080923;28;20201;-71
2022/01/15 09:58:12;;;;;;;49.15;21.48;;;1.00;99.90;;;;;;5080859;28;20204;-71
2022/01/15 10:00:39;;;;;;;38.30;17.98;;;1.10;99.90;;;;;;5080117;28;20287;-72
2022/01/15 10:03:06;;;;;;;37.45;19.92;;;1.20;99.90;;;;;;5079553;28;20208;-72
2022/01/15 10:05:32;;;;;;;51.58;20.58;;;1.20;99.90;;;;;;5079939;28;20211;-72
2022/01/15 10:08:07;;;;;;;31.63;16.40;;;1.20;99.90;;;;;;5079084;28;20636;-71
2022/01/15 10:10:34;;;;;;;40.97;18.30;;;1.10;99.90;;;;;;5078873;28;20195;-72
2022/01/15 10:13:21;;;;;;;36.45;18.90;;;1.10;99.90;;;;;;5079590;28;20200;-72
2022/01/15 10:16:09;;;;;;;43.50;21.20;;;1.20;99.90;;;;;;5079635;28;20204;-72
2022/01/15 10:18:44;;;;;;;34.13;18.27;;;1.30;99.90;;;;;;5077499;28;20631;-71
2022/01/15 10:21:12;;;;;;;35.28;16.38;;;1.30;99.90;;;;;;5078347;28;20204;-71
2022/01/15 10:23:53;;;;;;;40.25;18.95;;;1.20;99.90;;;;;;5078659;28;20295;-71
2022/01/15 10:26:22;;;;;;;37.20;18.23;;;1.20;99.90;;;;;;5076113;28;20618;-71
2022/01/15 10:28:57;;;;;;;36.50;18.75;;;1.10;99.90;;;;;;5079554;28;20227;-71
2022/01/15 10:31:32;;;;;;;41.33;18.48;;;1.20;99.90;;;;;;5080012;28;20570;-71
2022/01/15 10:34:20;;;;;;;40.53;18.88;;;1.20;99.90;;;;;;5080704;28;20184;-71
2022/01/15 10:36:46;;;;;;;40.63;18.83;;;1.30;99.90;;;;;;5079549;28;20196;-71
2022/01/15 10:39:20;;;;;;;40.15;19.92;;;1.40;99.90;;;;;;5079372;28;20259;-71
2022/01/15 10:41:48;;;;;;;41.10;19.23;;;1.30;99.90;;;;;;5078547;28;20211;-70
2022/01/15 10:44:36;;;;;;;41.20;18.92;;;1.30;99.90;;;;;;5079154;28;20208;-71
2022/01/15 10:47:12;;;;;;;46.30;20.92;;;1.20;99.90;;;;;;5079307;28;20204;-71
2022/01/15 10:49:40;;;;;;;38.22;20.02;;;1.30;99.90;;;;;;5078977;28;20188;-71
2022/01/15 10:52:11;;;;;;;48.10;21.02;;;1.30;99.90;;;;;;5079229;28;20583;-72
2022/01/15 10:54:54;;;;;;;46.75;20.27;;;1.40;99.90;;;;;;5078086;28;20695;-72
2022/01/15 10:57:34;;;;;;;37.58;18.23;;;1.50;99.90;;;;;;5078279;28;20207;-72
2022/01/15 11:00:09;;;;;;;33.97;19.38;;;1.50;99.90;;;;;;5079135;28;20196;-72
2022/01/15 11:02:36;;;;;;;27.30;17.85;;;1.30;99.90;;;;;;5078110;28;20187;-72
2022/01/15 11:05:40;;;;;;;36.55;20.55;;;1.30;99.90;;;;;;5077385;28;20299;-71
2022/01/15 11:08:16;;;;;;;34.65;17.52;;;1.30;99.90;;;;;;5035957;28;20233;-72
2022/01/15 11:10:44;;;;;;;36.30;19.48;;;1.50;99.90;;;;;;5074119;28;20259;-71
2022/01/15 11:13:14;;;;;;;30.88;18.58;;;1.60;99.90;;;;;;5078615;28;20286;-72
2022/01/15 11:15:43;;;;;;;35.13;19.33;;;1.60;99.90;;;;;;5078232;28;20284;-71
2022/01/15 11:18:34;;;;;;;33.78;17.77;;;1.60;99.90;;;;;;5076775;28;20199;-71
2022/01/15 11:21:07;;;;;;;38.03;18.85;;;1.50;99.90;;;;;;5077008;28;20558;-71
2022/01/15 11:23:37;;;;;;;47.60;20.50;;;1.60;99.90;;;;;;5077544;28;20667;-71
2022/01/15 11:26:12;;;;;;;38.83;19.48;;;1.70;99.90;;;;;;5075897;28;20204;-71
2022/01/15 11:28:41;;;;;;;43.90;24.13;;;1.60;99.90;;;;;;5075869;28;20218;-71
2022/01/15 11:31:29;;;;;;;43.92;20.30;;;1.50;99.90;;;;;;5075636;28;20207;-71
2022/01/15 11:33:59;;;;;;;45.10;22.75;;;1.40;99.90;;;;;;5076053;28;20180;-71
2022/01/15 11:36:38;;;;;;;35.80;17.48;;;1.50;99.90;;;;;;5076184;28;20188;-71
2022/01/15 11:39:07;;;;;;;40.15;20.50;;;1.40;99.90;;;;;;5075963;28;20543;-71
2022/01/15 11:41:35;;;;;;;35.08;19.80;;;1.40;99.90;;;;;;5076994;28;20221;-71
2022/01/15 11:44:04;;;;;;;36.72;20.33;;;1.50;99.90;;;;;;5076730;28;20211;-72
2022/01/15 11:46:49;;;;;;;28.98;18.40;;;1.60;99.90;;;;;;5076595;28;20282;-72
2022/01/15 11:49:39;;;;;;;36.65;19.13;;;1.50;99.90;;;;;;5076037;28;20203;-72
2022/01/15 11:52:05;;;;;;;37.63;20.40;;;1.60;99.90;;;;;;5076297;28;20691;-72
2022/01/15 11:54:33;;;;;;;42.13;21.33;;;1.70;99.90;;;;;;5077029;28;20196;-71
2022/01/15 11:57:04;;;;;;;33.53;18.77;;;1.70;99.90;;;;;;5077460;28;20275;-72
2022/01/15 11:59:49;;;;;;;44.20;20.10;;;1.60;99.90;;;;;;5076886;28;20659;-71
2022/01/15 12:02:43;;;;;;;34.75;19.58;;;1.70;99.90;;;;;;5076177;28;20191;-72
2022/01/15 12:05:15;;;;;;;40.22;20.75;;;1.70;99.90;;;;;;5076098;28;20282;-72
2022/01/15 12:07:47;;;;;;;31.00;18.92;;;1.70;99.90;;;;;;5076217;28;20239;-71
2022/01/15 12:10:17;;;;;;;31.45;18.55;;;1.70;99.90;;;;;;5074917;28;20196;-71
2022/01/15 12:12:49;;;;;;;29.67;18.55;;;1.60;99.90;;;;;;5074495;28;20188;-71
2022/01/15 12:15:19;;;;;;;33.17;18.48;;;1.60;99.90;;;;;;5075694;28;20560;-72
2022/01/15 12:17:51;;;;;;;32.58;19.42;;;1.60;99.90;;;;;;5075006;28;20219;-72
2022/01/15 12:20:17;;;;;;;32.47;18.83;;;1.60;99.90;;;;;;5076531;28;20562;-72
2022/01/15 12:23:13;;;;;;;25.92;18.40;;;1.80;99.90;;;;;;5075500;28;20373;-71
2022/01/15 12:25:40;;;;;;;36.95;21.38;;;1.70;99.90;;;;;;5076740;28;20291;-71
2022/01/15 12:28:09;;;;;;;32.05;19.30;;;1.70;99.90;;;;;;5076748;28;20729;-72
2022/01/15 12:30:41;;;;;;;31.70;19.52;;;1.80;99.90;;;;;;5078157;28;20571;-72
2022/01/15 12:33:13;;;;;;;33.13;19.02;;;1.80;99.90;;;;;;5078646;28;20176;-72
2022/01/15 12:35:42;;;;;;;29.70;17.98;;;1.80;99.90;;;;;;5077741;28;20275;-72
2022/01/15 12:38:11;;;;;;;34.28;19.63;;;1.70;99.90;;;;;;5077948;28;20207;-72
2022/01/15 12:40:48;;;;;;;33.15;20.45;;;1.80;99.90;;;;;;5078333;28;20550;-72
2022/01/15 12:43:32;;;;;;;38.80;21.35;;;1.80;99.90;;;;;;5078389;28;20328;-72
2022/01/15 12:46:02;;;;;;;33.38;19.35;;;1.80;99.90;;;;;;5077548;28;20192;-72
2022/01/15 12:48:31;;;;;;;35.45;19.15;;;1.80;99.90;;;;;;5078107;28;20234;-72
2022/01/15 12:50:59;;;;;;;36.45;20.90;;;1.80;99.90;;;;;;5078207;28;20200;-72
2022/01/15 12:53:28;;;;;;;33.03;21.00;;;1.90;99.90;;;;;;5078350;28;20770;-72
2022/01/15 12:55:55;;;;;;;40.38;22.27;;;2.00;99.90;;;;;;5077373;28;20208;-72
2022/01/15 12:58:23;;;;;;;36.03;22.65;;;1.90;99.90;;;;;;5075355;28;20237;-71
2022/01/15 13:00:51;;;;;;;38.28;20.65;;;1.80;99.90;;;;;;5075873;28;20204;-71
2022/01/15 13:03:19;;;;;;;39.97;21.08;;;1.70;99.90;;;;;;5076537;28;20218;-71
2022/01/15 13:05:52;;;;;;;32.30;20.95;;;1.70;99.90;;;;;;5075972;28;20219;-72